Pogibi, Russia
Current Conditions -  °F | °C
As of 1:00 AM on Thursday 23 Oct 2014 (Local Time) from UHSS Reporting Station
Clear Clear  
Wind Chill: 23°   Ceiling: Unl
Heat Index: 28°   Visibility: 6mi
Dew Point: 21°   Wind: 4mph
Humidity: 74%   Direction: 140°SE
Pressure: 30"   Gusts: NA
Location:  52.22°N, 141.66°E
Report Text: UHSS 221400Z 14002MPS 9999 NSC M02/M06 Q1016 RMK QFE761/1015
Loading
Personal Weather Stations






























Interactive Weather Map
Tropical Storm Tracking
New forecast layout! Learn more

10-Day Weather Forecast

Advertisements
Track Severe Weather on mobile